sensor_id;sensor_type;location;lat;lon;timestamp;P1;durP1;ratioP1;P2;durP2;ratioP2
78887;SDS011;68276;49.326;8.690;2023-07-30T00:00:35;8.00;;;2.07;;
78887;SDS011;68276;49.326;8.690;2023-07-30T00:03:03;6.43;;;2.13;;
78887;SDS011;68276;49.326;8.690;2023-07-30T00:05:29;6.78;;;2.05;;
78887;SDS011;68276;49.326;8.690;2023-07-30T00:07:54;7.07;;;2.10;;
78887;SDS011;68276;49.326;8.690;2023-07-30T00:10:19;7.80;;;2.20;;
78887;SDS011;68276;49.326;8.690;2023-07-30T00:12:45;8.17;;;2.70;;
78887;SDS011;68276;49.326;8.690;2023-07-30T00:15:10;7.47;;;2.25;;
78887;SDS011;68276;49.326;8.690;2023-07-30T00:17:37;7.45;;;2.50;;
78887;SDS011;68276;49.326;8.690;2023-07-30T00:20:03;5.72;;;2.00;;
78887;SDS011;68276;49.326;8.690;2023-07-30T00:22:30;6.50;;;2.30;;
78887;SDS011;68276;49.326;8.690;2023-07-30T00:24:55;6.43;;;2.03;;
78887;SDS011;68276;49.326;8.690;2023-07-30T00:27:20;7.20;;;2.20;;
78887;SDS011;68276;49.326;8.690;2023-07-30T00:32:11;6.40;;;2.23;;
78887;SDS011;68276;49.326;8.690;2023-07-30T00:34:40;7.35;;;2.38;;
78887;SDS011;68276;49.326;8.690;2023-07-30T00:37:06;7.22;;;2.40;;
78887;SDS011;68276;49.326;8.690;2023-07-30T00:39:31;6.85;;;2.25;;
78887;SDS011;68276;49.326;8.690;2023-07-30T00:44:22;8.00;;;2.20;;
78887;SDS011;68276;49.326;8.690;2023-07-30T00:46:47;8.55;;;2.25;;
78887;SDS011;68276;49.326;8.690;2023-07-30T00:49:13;7.05;;;2.05;;
78887;SDS011;68276;49.326;8.690;2023-07-30T00:51:39;6.32;;;1.80;;
78887;SDS011;68276;49.326;8.690;2023-07-30T00:54:06;7.20;;;2.22;;
78887;SDS011;68276;49.326;8.690;2023-07-30T00:56:31;5.68;;;1.63;;
78887;SDS011;68276;49.326;8.690;2023-07-30T01:01:22;7.07;;;1.70;;
78887;SDS011;68276;49.326;8.690;2023-07-30T01:03:48;5.47;;;1.60;;
78887;SDS011;68276;49.326;8.690;2023-07-30T01:06:15;4.28;;;1.30;;
78887;SDS011;68276;49.326;8.690;2023-07-30T01:08:40;4.57;;;1.37;;
78887;SDS011;68276;49.326;8.690;2023-07-30T01:11:05;4.15;;;1.30;;
78887;SDS011;68276;49.326;8.690;2023-07-30T01:13:32;4.60;;;1.20;;
78887;SDS011;68276;49.326;8.690;2023-07-30T01:15:58;4.30;;;1.33;;
78887;SDS011;68276;49.326;8.690;2023-07-30T01:18:24;4.07;;;1.20;;
78887;SDS011;68276;49.326;8.690;2023-07-30T01:20:52;6.10;;;2.13;;
78887;SDS011;68276;49.326;8.690;2023-07-30T01:23:18;5.43;;;1.00;;
78887;SDS011;68276;49.326;8.690;2023-07-30T01:25:43;3.87;;;1.20;;
78887;SDS011;68276;49.326;8.690;2023-07-30T01:28:12;6.13;;;1.10;;
78887;SDS011;68276;49.326;8.690;2023-07-30T01:30:41;5.13;;;1.50;;
78887;SDS011;68276;49.326;8.690;2023-07-30T01:33:09;3.22;;;1.00;;
78887;SDS011;68276;49.326;8.690;2023-07-30T01:35:36;3.92;;;1.08;;
78887;SDS011;68276;49.326;8.690;2023-07-30T01:38:03;4.30;;;1.10;;
78887;SDS011;68276;49.326;8.690;2023-07-30T01:40:30;4.13;;;1.08;;
78887;SDS011;68276;49.326;8.690;2023-07-30T01:42:56;3.85;;;1.10;;
78887;SDS011;68276;49.326;8.690;2023-07-30T01:45:22;4.30;;;1.10;;
78887;SDS011;68276;49.326;8.690;2023-07-30T01:47:47;5.03;;;1.45;;
78887;SDS011;68276;49.326;8.690;2023-07-30T01:50:12;4.90;;;1.20;;
78887;SDS011;68276;49.326;8.690;2023-07-30T01:52:38;3.50;;;1.20;;
78887;SDS011;68276;49.326;8.690;2023-07-30T01:55:03;2.75;;;1.00;;
78887;SDS011;68276;49.326;8.690;2023-07-30T01:57:29;5.00;;;1.30;;
78887;SDS011;68276;49.326;8.690;2023-07-30T01:59:54;3.17;;;1.20;;
78887;SDS011;68276;49.326;8.690;2023-07-30T02:02:20;3.53;;;1.13;;
78887;SDS011;68276;49.326;8.690;2023-07-30T02:07:11;5.50;;;1.20;;
78887;SDS011;68276;49.326;8.690;2023-07-30T02:09:36;4.35;;;1.20;;
78887;SDS011;68276;49.326;8.690;2023-07-30T02:12:01;5.15;;;1.45;;
78887;SDS011;68276;49.326;8.690;2023-07-30T02:16:52;3.60;;;1.10;;
78887;SDS011;68276;49.326;8.690;2023-07-30T02:21:43;4.20;;;1.20;;
78887;SDS011;68276;49.326;8.690;2023-07-30T02:24:10;6.73;;;1.20;;
78887;SDS011;68276;49.326;8.690;2023-07-30T02:26:37;4.60;;;1.30;;
78887;SDS011;68276;49.326;8.690;2023-07-30T02:29:03;5.05;;;1.30;;
78887;SDS011;68276;49.326;8.690;2023-07-30T02:31:28;5.40;;;1.42;;
78887;SDS011;68276;49.326;8.690;2023-07-30T02:33:54;4.37;;;1.43;;
78887;SDS011;68276;49.326;8.690;2023-07-30T02:36:19;4.83;;;1.10;;
78887;SDS011;68276;49.326;8.690;2023-07-30T02:41:10;4.90;;;1.40;;
78887;SDS011;68276;49.326;8.690;2023-07-30T02:46:00;3.83;;;1.20;;
78887;SDS011;68276;49.326;8.690;2023-07-30T02:50:51;4.53;;;1.33;;
78887;SDS011;68276;49.326;8.690;2023-07-30T02:53:16;4.37;;;1.40;;
78887;SDS011;68276;49.326;8.690;2023-07-30T02:58:07;6.63;;;1.33;;
78887;SDS011;68276;49.326;8.690;2023-07-30T03:02:58;4.17;;;1.20;;
78887;SDS011;68276;49.326;8.690;2023-07-30T03:05:23;4.22;;;1.45;;
78887;SDS011;68276;49.326;8.690;2023-07-30T03:07:49;3.83;;;1.30;;
78887;SDS011;68276;49.326;8.690;2023-07-30T03:10:14;4.72;;;1.50;;
78887;SDS011;68276;49.326;8.690;2023-07-30T03:12:39;4.78;;;1.55;;
78887;SDS011;68276;49.326;8.690;2023-07-30T03:15:05;3.40;;;1.20;;
78887;SDS011;68276;49.326;8.690;2023-07-30T03:17:31;5.07;;;1.73;;
78887;SDS011;68276;49.326;8.690;2023-07-30T03:19:56;4.40;;;1.58;;
78887;SDS011;68276;49.326;8.690;2023-07-30T03:24:47;4.97;;;1.90;;
78887;SDS011;68276;49.326;8.690;2023-07-30T03:27:13;5.85;;;1.83;;
78887;SDS011;68276;49.326;8.690;2023-07-30T03:29:38;4.80;;;1.40;;
78887;SDS011;68276;49.326;8.690;2023-07-30T03:32:04;6.70;;;1.63;;
78887;SDS011;68276;49.326;8.690;2023-07-30T03:34:29;4.80;;;1.48;;
78887;SDS011;68276;49.326;8.690;2023-07-30T03:36:55;5.17;;;1.50;;
78887;SDS011;68276;49.326;8.690;2023-07-30T03:39:20;5.20;;;1.50;;
78887;SDS011;68276;49.326;8.690;2023-07-30T03:41:52;4.80;;;1.57;;
78887;SDS011;68276;49.326;8.690;2023-07-30T03:44:17;4.60;;;1.38;;
78887;SDS011;68276;49.326;8.690;2023-07-30T03:46:43;5.78;;;1.73;;
78887;SDS011;68276;49.326;8.690;2023-07-30T03:49:09;5.88;;;1.70;;
78887;SDS011;68276;49.326;8.690;2023-07-30T03:51:34;5.63;;;1.85;;
78887;SDS011;68276;49.326;8.690;2023-07-30T03:54:00;5.05;;;1.67;;
78887;SDS011;68276;49.326;8.690;2023-07-30T03:56:25;6.20;;;1.80;;
78887;SDS011;68276;49.326;8.690;2023-07-30T03:58:50;5.32;;;1.80;;
78887;SDS011;68276;49.326;8.690;2023-07-30T04:01:16;5.13;;;1.70;;
78887;SDS011;68276;49.326;8.690;2023-07-30T04:03:41;6.13;;;1.67;;
78887;SDS011;68276;49.326;8.690;2023-07-30T04:06:07;5.53;;;1.80;;
78887;SDS011;68276;49.326;8.690;2023-07-30T04:08:32;5.40;;;1.73;;
78887;SDS011;68276;49.326;8.690;2023-07-30T04:10:57;6.18;;;1.60;;
78887;SDS011;68276;49.326;8.690;2023-07-30T04:13:23;5.65;;;1.88;;
78887;SDS011;68276;49.326;8.690;2023-07-30T04:15:48;6.60;;;1.97;;
78887;SDS011;68276;49.326;8.690;2023-07-30T04:20:39;5.17;;;1.77;;
78887;SDS011;68276;49.326;8.690;2023-07-30T04:23:04;7.67;;;1.90;;
78887;SDS011;68276;49.326;8.690;2023-07-30T04:25:29;6.27;;;1.70;;
78887;SDS011;68276;49.326;8.690;2023-07-30T04:27:55;5.77;;;1.80;;
78887;SDS011;68276;49.326;8.690;2023-07-30T04:30:20;6.93;;;1.87;;
78887;SDS011;68276;49.326;8.690;2023-07-30T04:32:46;6.05;;;2.00;;
78887;SDS011;68276;49.326;8.690;2023-07-30T04:35:11;5.80;;;1.87;;
78887;SDS011;68276;49.326;8.690;2023-07-30T04:37:36;6.35;;;1.90;;
78887;SDS011;68276;49.326;8.690;2023-07-30T04:40:02;6.97;;;1.80;;
78887;SDS011;68276;49.326;8.690;2023-07-30T04:44:53;7.37;;;1.93;;
78887;SDS011;68276;49.326;8.690;2023-07-30T04:49:44;6.00;;;1.70;;
78887;SDS011;68276;49.326;8.690;2023-07-30T04:52:09;6.67;;;1.87;;
78887;SDS011;68276;49.326;8.690;2023-07-30T04:54:35;6.82;;;2.10;;
78887;SDS011;68276;49.326;8.690;2023-07-30T04:57:01;6.25;;;2.30;;
78887;SDS011;68276;49.326;8.690;2023-07-30T04:59:27;6.80;;;1.75;;
78887;SDS011;68276;49.326;8.690;2023-07-30T05:01:53;7.25;;;2.00;;
78887;SDS011;68276;49.326;8.690;2023-07-30T05:04:18;4.60;;;1.80;;
78887;SDS011;68276;49.326;8.690;2023-07-30T05:06:43;7.37;;;2.50;;
78887;SDS011;68276;49.326;8.690;2023-07-30T05:09:09;6.13;;;1.77;;
78887;SDS011;68276;49.326;8.690;2023-07-30T05:11:36;5.88;;;2.10;;
78887;SDS011;68276;49.326;8.690;2023-07-30T05:14:02;6.68;;;1.98;;
78887;SDS011;68276;49.326;8.690;2023-07-30T05:16:27;6.50;;;1.80;;
78887;SDS011;68276;49.326;8.690;2023-07-30T05:18:52;5.17;;;2.00;;
78887;SDS011;68276;49.326;8.690;2023-07-30T05:23:43;5.60;;;2.00;;
78887;SDS011;68276;49.326;8.690;2023-07-30T05:26:08;6.07;;;2.10;;
78887;SDS011;68276;49.326;8.690;2023-07-30T05:28:34;7.47;;;2.40;;
78887;SDS011;68276;49.326;8.690;2023-07-30T05:33:24;6.37;;;2.67;;
78887;SDS011;68276;49.326;8.690;2023-07-30T05:35:50;5.77;;;2.13;;
78887;SDS011;68276;49.326;8.690;2023-07-30T05:38:15;8.77;;;2.72;;
78887;SDS011;68276;49.326;8.690;2023-07-30T05:40:41;7.15;;;2.55;;
78887;SDS011;68276;49.326;8.690;2023-07-30T05:43:07;6.93;;;2.88;;
78887;SDS011;68276;49.326;8.690;2023-07-30T05:45:33;8.25;;;2.85;;
78887;SDS011;68276;49.326;8.690;2023-07-30T05:47:58;9.85;;;2.92;;
78887;SDS011;68276;49.326;8.690;2023-07-30T05:50:24;9.53;;;2.80;;
78887;SDS011;68276;49.326;8.690;2023-07-30T05:52:49;7.40;;;2.53;;
78887;SDS011;68276;49.326;8.690;2023-07-30T05:55:15;7.55;;;2.60;;
78887;SDS011;68276;49.326;8.690;2023-07-30T05:57:40;6.37;;;2.40;;
78887;SDS011;68276;49.326;8.690;2023-07-30T06:00:06;6.70;;;2.67;;
78887;SDS011;68276;49.326;8.690;2023-07-30T06:04:57;7.27;;;2.33;;
78887;SDS011;68276;49.326;8.690;2023-07-30T06:09:47;7.50;;;2.90;;
78887;SDS011;68276;49.326;8.690;2023-07-30T06:14:38;6.70;;;2.73;;
78887;SDS011;68276;49.326;8.690;2023-07-30T06:17:03;7.07;;;2.53;;
78887;SDS011;68276;49.326;8.690;2023-07-30T06:21:54;6.73;;;2.50;;
78887;SDS011;68276;49.326;8.690;2023-07-30T06:24:19;7.82;;;2.15;;
78887;SDS011;68276;49.326;8.690;2023-07-30T06:26:45;6.88;;;2.08;;
78887;SDS011;68276;49.326;8.690;2023-07-30T06:31:36;7.27;;;2.60;;
78887;SDS011;68276;49.326;8.690;2023-07-30T06:34:01;7.00;;;2.40;;
78887;SDS011;68276;49.326;8.690;2023-07-30T06:36:27;6.60;;;2.40;;
78887;SDS011;68276;49.326;8.690;2023-07-30T06:41:17;7.43;;;2.70;;
78887;SDS011;68276;49.326;8.690;2023-07-30T06:46:08;6.33;;;2.50;;
78887;SDS011;68276;49.326;8.690;2023-07-30T06:50:58;9.20;;;2.20;;
78887;SDS011;68276;49.326;8.690;2023-07-30T06:55:49;6.47;;;2.10;;
78887;SDS011;68276;49.326;8.690;2023-07-30T06:58:14;5.43;;;1.97;;
78887;SDS011;68276;49.326;8.690;2023-07-30T07:03:05;6.13;;;1.80;;
78887;SDS011;68276;49.326;8.690;2023-07-30T07:07:56;5.60;;;1.90;;
78887;SDS011;68276;49.326;8.690;2023-07-30T07:10:21;5.77;;;1.73;;
78887;SDS011;68276;49.326;8.690;2023-07-30T07:15:12;4.77;;;1.70;;
78887;SDS011;68276;49.326;8.690;2023-07-30T07:20:03;5.53;;;1.90;;
78887;SDS011;68276;49.326;8.690;2023-07-30T07:22:30;7.40;;;2.00;;
78887;SDS011;68276;49.326;8.690;2023-07-30T07:24:55;6.63;;;2.40;;
78887;SDS011;68276;49.326;8.690;2023-07-30T07:29:49;6.30;;;2.38;;
78887;SDS011;68276;49.326;8.690;2023-07-30T07:32:14;6.07;;;2.33;;
78887;SDS011;68276;49.326;8.690;2023-07-30T07:34:39;5.90;;;1.90;;
78887;SDS011;68276;49.326;8.690;2023-07-30T07:37:05;5.90;;;2.27;;
78887;SDS011;68276;49.326;8.690;2023-07-30T07:39:30;6.75;;;2.05;;
78887;SDS011;68276;49.326;8.690;2023-07-30T07:41:58;7.63;;;2.03;;
78887;SDS011;68276;49.326;8.690;2023-07-30T07:44:23;7.25;;;2.10;;
78887;SDS011;68276;49.326;8.690;2023-07-30T07:46:48;5.50;;;2.00;;
78887;SDS011;68276;49.326;8.690;2023-07-30T07:49:14;7.77;;;2.30;;
78887;SDS011;68276;49.326;8.690;2023-07-30T07:51:39;5.43;;;1.80;;
78887;SDS011;68276;49.326;8.690;2023-07-30T07:54:04;6.97;;;1.97;;
78887;SDS011;68276;49.326;8.690;2023-07-30T07:56:30;5.57;;;1.88;;
78887;SDS011;68276;49.326;8.690;2023-07-30T07:58:56;4.65;;;1.90;;
78887;SDS011;68276;49.326;8.690;2023-07-30T08:01:22;5.45;;;2.10;;
78887;SDS011;68276;49.326;8.690;2023-07-30T08:03:47;4.63;;;1.60;;
78887;SDS011;68276;49.326;8.690;2023-07-30T08:06:13;5.07;;;1.70;;
78887;SDS011;68276;49.326;8.690;2023-07-30T08:11:07;4.07;;;1.50;;
78887;SDS011;68276;49.326;8.690;2023-07-30T08:13:34;3.95;;;1.40;;
78887;SDS011;68276;49.326;8.690;2023-07-30T08:16:00;5.80;;;1.60;;
78887;SDS011;68276;49.326;8.690;2023-07-30T08:20:51;5.43;;;1.60;;
78887;SDS011;68276;49.326;8.690;2023-07-30T08:25:42;4.07;;;1.43;;
78887;SDS011;68276;49.326;8.690;2023-07-30T08:30:32;4.80;;;1.60;;
78887;SDS011;68276;49.326;8.690;2023-07-30T08:32:58;3.95;;;1.48;;
78887;SDS011;68276;49.326;8.690;2023-07-30T08:37:48;4.77;;;1.73;;
78887;SDS011;68276;49.326;8.690;2023-07-30T08:42:39;5.65;;;1.60;;
78887;SDS011;68276;49.326;8.690;2023-07-30T08:47:31;6.45;;;1.60;;
78887;SDS011;68276;49.326;8.690;2023-07-30T08:52:21;4.50;;;1.40;;
78887;SDS011;68276;49.326;8.690;2023-07-30T08:54:49;5.93;;;2.00;;
78887;SDS011;68276;49.326;8.690;2023-07-30T08:59:42;6.43;;;1.50;;
78887;SDS011;68276;49.326;8.690;2023-07-30T09:02:13;5.35;;;1.50;;
78887;SDS011;68276;49.326;8.690;2023-07-30T09:05:10;6.43;;;1.50;;
78887;SDS011;68276;49.326;8.690;2023-07-30T09:10:01;3.67;;;1.30;;
78887;SDS011;68276;49.326;8.690;2023-07-30T09:14:56;3.70;;;1.30;;
78887;SDS011;68276;49.326;8.690;2023-07-30T09:19:47;3.73;;;1.10;;
78887;SDS011;68276;49.326;8.690;2023-07-30T09:24:44;4.95;;;1.30;;
78887;SDS011;68276;49.326;8.690;2023-07-30T09:27:09;3.67;;;1.25;;
78887;SDS011;68276;49.326;8.690;2023-07-30T09:31:59;4.13;;;1.40;;
78887;SDS011;68276;49.326;8.690;2023-07-30T09:36:53;2.60;;;1.03;;
78887;SDS011;68276;49.326;8.690;2023-07-30T09:39:23;3.55;;;1.20;;
78887;SDS011;68276;49.326;8.690;2023-07-30T09:41:50;3.95;;;1.10;;
78887;SDS011;68276;49.326;8.690;2023-07-30T09:44:17;5.05;;;1.45;;
78887;SDS011;68276;49.326;8.690;2023-07-30T09:46:45;4.43;;;1.23;;
78887;SDS011;68276;49.326;8.690;2023-07-30T09:49:12;2.72;;;1.08;;
78887;SDS011;68276;49.326;8.690;2023-07-30T09:54:05;3.30;;;1.15;;
78887;SDS011;68276;49.326;8.690;2023-07-30T09:56:32;4.50;;;1.27;;
78887;SDS011;68276;49.326;8.690;2023-07-30T10:01:23;3.77;;;1.23;;
78887;SDS011;68276;49.326;8.690;2023-07-30T10:03:53;4.00;;;1.20;;
78887;SDS011;68276;49.326;8.690;2023-07-30T10:06:21;4.40;;;1.20;;
78887;SDS011;68276;49.326;8.690;2023-07-30T10:08:50;4.97;;;1.20;;
78887;SDS011;68276;49.326;8.690;2023-07-30T10:11:17;5.03;;;1.30;;
78887;SDS011;68276;49.326;8.690;2023-07-30T10:13:45;5.05;;;1.35;;
78887;SDS011;68276;49.326;8.690;2023-07-30T10:18:40;3.83;;;1.40;;
78887;SDS011;68276;49.326;8.690;2023-07-30T10:23:34;5.60;;;1.35;;
78887;SDS011;68276;49.326;8.690;2023-07-30T10:28:35;7.13;;;1.77;;
78887;SDS011;68276;49.326;8.690;2023-07-30T10:31:07;5.20;;;1.30;;
78887;SDS011;68276;49.326;8.690;2023-07-30T10:33:46;3.72;;;1.05;;
78887;SDS011;68276;49.326;8.690;2023-07-30T10:36:16;3.15;;;1.10;;
78887;SDS011;68276;49.326;8.690;2023-07-30T10:38:42;3.88;;;1.00;;
78887;SDS011;68276;49.326;8.690;2023-07-30T10:46:04;3.38;;;0.90;;
78887;SDS011;68276;49.326;8.690;2023-07-30T10:51:17;3.83;;;1.02;;
78887;SDS011;68276;49.326;8.690;2023-07-30T10:53:44;4.20;;;1.15;;
78887;SDS011;68276;49.326;8.690;2023-07-30T10:56:11;3.08;;;1.45;;
78887;SDS011;68276;49.326;8.690;2023-07-30T10:58:37;4.57;;;0.95;;
78887;SDS011;68276;49.326;8.690;2023-07-30T11:03:28;2.45;;;0.90;;
78887;SDS011;68276;49.326;8.690;2023-07-30T11:08:42;3.97;;;0.98;;
78887;SDS011;68276;49.326;8.690;2023-07-30T11:11:08;4.82;;;1.15;;
78887;SDS011;68276;49.326;8.690;2023-07-30T11:13:38;2.80;;;0.95;;
78887;SDS011;68276;49.326;8.690;2023-07-30T11:16:08;3.17;;;0.85;;
78887;SDS011;68276;49.326;8.690;2023-07-30T11:18:34;3.67;;;1.23;;
78887;SDS011;68276;49.326;8.690;2023-07-30T11:23:30;4.90;;;1.05;;
78887;SDS011;68276;49.326;8.690;2023-07-30T11:25:55;2.95;;;0.90;;
78887;SDS011;68276;49.326;8.690;2023-07-30T11:28:31;3.13;;;0.90;;
78887;SDS011;68276;49.326;8.690;2023-07-30T11:31:01;3.97;;;1.20;;
78887;SDS011;68276;49.326;8.690;2023-07-30T11:35:57;3.47;;;1.20;;
78887;SDS011;68276;49.326;8.690;2023-07-30T11:38:25;2.72;;;0.90;;
78887;SDS011;68276;49.326;8.690;2023-07-30T11:40:54;5.22;;;1.00;;
78887;SDS011;68276;49.326;8.690;2023-07-30T11:43:21;2.35;;;0.93;;
78887;SDS011;68276;49.326;8.690;2023-07-30T11:45:47;2.63;;;0.88;;
78887;SDS011;68276;49.326;8.690;2023-07-30T11:48:13;4.00;;;1.00;;
78887;SDS011;68276;49.326;8.690;2023-07-30T11:53:10;4.47;;;0.90;;
78887;SDS011;68276;49.326;8.690;2023-07-30T11:55:39;1.77;;;0.87;;
78887;SDS011;68276;49.326;8.690;2023-07-30T11:58:09;2.15;;;0.90;;
78887;SDS011;68276;49.326;8.690;2023-07-30T12:00:35;4.68;;;1.00;;
78887;SDS011;68276;49.326;8.690;2023-07-30T12:03:02;2.83;;;1.00;;
78887;SDS011;68276;49.326;8.690;2023-07-30T12:05:36;3.35;;;1.30;;
78887;SDS011;68276;49.326;8.690;2023-07-30T12:08:02;3.10;;;0.98;;
78887;SDS011;68276;49.326;8.690;2023-07-30T12:10:45;4.38;;;1.10;;
78887;SDS011;68276;49.326;8.690;2023-07-30T12:13:16;3.72;;;0.90;;
78887;SDS011;68276;49.326;8.690;2023-07-30T12:15:51;3.85;;;0.90;;
78887;SDS011;68276;49.326;8.690;2023-07-30T12:18:18;4.10;;;0.90;;
78887;SDS011;68276;49.326;8.690;2023-07-30T12:20:44;5.43;;;1.05;;
78887;SDS011;68276;49.326;8.690;2023-07-30T12:23:10;3.53;;;1.00;;
78887;SDS011;68276;49.326;8.690;2023-07-30T12:28:01;3.03;;;0.80;;
78887;SDS011;68276;49.326;8.690;2023-07-30T12:32:52;3.45;;;0.90;;
78887;SDS011;68276;49.326;8.690;2023-07-30T12:35:18;3.17;;;0.90;;
78887;SDS011;68276;49.326;8.690;2023-07-30T12:37:44;3.22;;;1.00;;
78887;SDS011;68276;49.326;8.690;2023-07-30T12:40:09;3.45;;;0.90;;
78887;SDS011;68276;49.326;8.690;2023-07-30T12:45:00;4.13;;;1.20;;
78887;SDS011;68276;49.326;8.690;2023-07-30T12:49:51;6.40;;;1.13;;
78887;SDS011;68276;49.326;8.690;2023-07-30T12:52:16;2.87;;;0.97;;
78887;SDS011;68276;49.326;8.690;2023-07-30T12:54:41;2.87;;;0.83;;
78887;SDS011;68276;49.326;8.690;2023-07-30T12:57:07;3.73;;;0.80;;
78887;SDS011;68276;49.326;8.690;2023-07-30T13:01:58;2.88;;;0.90;;
78887;SDS011;68276;49.326;8.690;2023-07-30T13:06:49;4.30;;;1.00;;
78887;SDS011;68276;49.326;8.690;2023-07-30T13:09:14;5.77;;;0.97;;
78887;SDS011;68276;49.326;8.690;2023-07-30T13:14:05;2.93;;;0.90;;
78887;SDS011;68276;49.326;8.690;2023-07-30T13:16:30;4.43;;;0.90;;
78887;SDS011;68276;49.326;8.690;2023-07-30T13:18:57;3.22;;;1.00;;
78887;SDS011;68276;49.326;8.690;2023-07-30T13:23:48;4.00;;;0.90;;
78887;SDS011;68276;49.326;8.690;2023-07-30T13:28:38;4.17;;;1.47;;
78887;SDS011;68276;49.326;8.690;2023-07-30T13:31:04;2.97;;;0.90;;
78887;SDS011;68276;49.326;8.690;2023-07-30T13:35:54;5.27;;;1.10;;
78887;SDS011;68276;49.326;8.690;2023-07-30T13:40:46;5.25;;;1.08;;
78887;SDS011;68276;49.326;8.690;2023-07-30T13:43:11;4.53;;;1.10;;
78887;SDS011;68276;49.326;8.690;2023-07-30T13:48:02;5.93;;;1.03;;
78887;SDS011;68276;49.326;8.690;2023-07-30T13:50:27;5.82;;;1.08;;
78887;SDS011;68276;49.326;8.690;2023-07-30T13:52:53;7.27;;;1.10;;
78887;SDS011;68276;49.326;8.690;2023-07-30T13:57:45;5.07;;;1.10;;
78887;SDS011;68276;49.326;8.690;2023-07-30T14:02:36;4.55;;;1.08;;
78887;SDS011;68276;49.326;8.690;2023-07-30T14:07:27;5.20;;;1.02;;
78887;SDS011;68276;49.326;8.690;2023-07-30T14:09:53;4.87;;;1.30;;
78887;SDS011;68276;49.326;8.690;2023-07-30T14:14:43;6.87;;;1.20;;
78887;SDS011;68276;49.326;8.690;2023-07-30T14:19:34;3.30;;;1.10;;
78887;SDS011;68276;49.326;8.690;2023-07-30T14:24:25;5.93;;;0.93;;
78887;SDS011;68276;49.326;8.690;2023-07-30T14:29:15;4.68;;;1.30;;
78887;SDS011;68276;49.326;8.690;2023-07-30T14:31:41;3.78;;;1.00;;
78887;SDS011;68276;49.326;8.690;2023-07-30T14:34:07;5.15;;;1.55;;
78887;SDS011;68276;49.326;8.690;2023-07-30T14:36:32;4.23;;;1.00;;
78887;SDS011;68276;49.326;8.690;2023-07-30T14:38:58;4.73;;;1.20;;
78887;SDS011;68276;49.326;8.690;2023-07-30T14:41:23;5.90;;;1.10;;
78887;SDS011;68276;49.326;8.690;2023-07-30T14:43:48;5.27;;;1.10;;
78887;SDS011;68276;49.326;8.690;2023-07-30T14:46:14;5.03;;;1.20;;
78887;SDS011;68276;49.326;8.690;2023-07-30T14:48:40;6.25;;;1.23;;
78887;SDS011;68276;49.326;8.690;2023-07-30T14:51:07;3.45;;;1.05;;
78887;SDS011;68276;49.326;8.690;2023-07-30T14:53:33;3.85;;;1.30;;
78887;SDS011;68276;49.326;8.690;2023-07-30T14:56:00;3.97;;;1.00;;
78887;SDS011;68276;49.326;8.690;2023-07-30T14:58:25;4.07;;;1.33;;
78887;SDS011;68276;49.326;8.690;2023-07-30T15:00:50;4.13;;;1.23;;
78887;SDS011;68276;49.326;8.690;2023-07-30T15:03:16;5.75;;;1.60;;
78887;SDS011;68276;49.326;8.690;2023-07-30T15:05:42;3.90;;;1.07;;
78887;SDS011;68276;49.326;8.690;2023-07-30T15:08:07;4.90;;;0.93;;
78887;SDS011;68276;49.326;8.690;2023-07-30T15:10:32;4.55;;;1.17;;
78887;SDS011;68276;49.326;8.690;2023-07-30T15:12:58;5.33;;;0.90;;
78887;SDS011;68276;49.326;8.690;2023-07-30T15:15:23;2.78;;;0.77;;
78887;SDS011;68276;49.326;8.690;2023-07-30T15:17:49;4.32;;;0.93;;
78887;SDS011;68276;49.326;8.690;2023-07-30T15:20:14;4.90;;;1.65;;
78887;SDS011;68276;49.326;8.690;2023-07-30T15:22:39;4.50;;;1.08;;
78887;SDS011;68276;49.326;8.690;2023-07-30T15:25:05;5.95;;;0.90;;
78887;SDS011;68276;49.326;8.690;2023-07-30T15:27:31;4.30;;;0.93;;
78887;SDS011;68276;49.326;8.690;2023-07-30T15:29:56;5.97;;;1.17;;
78887;SDS011;68276;49.326;8.690;2023-07-30T15:32:22;3.47;;;1.13;;
78887;SDS011;68276;49.326;8.690;2023-07-30T15:37:13;3.97;;;0.97;;
78887;SDS011;68276;49.326;8.690;2023-07-30T15:39:38;6.93;;;1.10;;
78887;SDS011;68276;49.326;8.690;2023-07-30T15:42:04;3.65;;;1.00;;
78887;SDS011;68276;49.326;8.690;2023-07-30T15:44:30;3.28;;;0.90;;
78887;SDS011;68276;49.326;8.690;2023-07-30T15:46:56;3.57;;;1.10;;
78887;SDS011;68276;49.326;8.690;2023-07-30T15:49:21;3.28;;;0.93;;
78887;SDS011;68276;49.326;8.690;2023-07-30T15:51:47;3.92;;;1.10;;
78887;SDS011;68276;49.326;8.690;2023-07-30T15:54:13;4.40;;;1.10;;
78887;SDS011;68276;49.326;8.690;2023-07-30T15:56:39;6.25;;;1.10;;
78887;SDS011;68276;49.326;8.690;2023-07-30T15:59:04;4.93;;;1.10;;
78887;SDS011;68276;49.326;8.690;2023-07-30T16:01:30;6.65;;;1.27;;
78887;SDS011;68276;49.326;8.690;2023-07-30T16:03:55;4.65;;;1.15;;
78887;SDS011;68276;49.326;8.690;2023-07-30T16:06:24;4.25;;;1.13;;
78887;SDS011;68276;49.326;8.690;2023-07-30T16:08:50;3.88;;;1.00;;
78887;SDS011;68276;49.326;8.690;2023-07-30T16:11:15;3.28;;;0.90;;
78887;SDS011;68276;49.326;8.690;2023-07-30T16:13:41;3.92;;;1.10;;
78887;SDS011;68276;49.326;8.690;2023-07-30T16:16:10;3.45;;;1.00;;
78887;SDS011;68276;49.326;8.690;2023-07-30T16:18:45;5.93;;;1.65;;
78887;SDS011;68276;49.326;8.690;2023-07-30T16:21:12;6.32;;;1.60;;
78887;SDS011;68276;49.326;8.690;2023-07-30T16:23:38;5.95;;;0.95;;
78887;SDS011;68276;49.326;8.690;2023-07-30T16:26:04;4.85;;;1.30;;
78887;SDS011;68276;49.326;8.690;2023-07-30T16:28:31;4.82;;;1.05;;
78887;SDS011;68276;49.326;8.690;2023-07-30T16:30:56;4.35;;;1.08;;
78887;SDS011;68276;49.326;8.690;2023-07-30T16:33:23;4.45;;;0.90;;
78887;SDS011;68276;49.326;8.690;2023-07-30T16:35:48;5.35;;;1.00;;
78887;SDS011;68276;49.326;8.690;2023-07-30T16:38:18;4.43;;;1.10;;
78887;SDS011;68276;49.326;8.690;2023-07-30T16:40:44;6.55;;;1.00;;
78887;SDS011;68276;49.326;8.690;2023-07-30T16:43:10;3.10;;;0.80;;
78887;SDS011;68276;49.326;8.690;2023-07-30T16:45:36;6.38;;;1.20;;
78887;SDS011;68276;49.326;8.690;2023-07-30T16:48:02;5.13;;;1.00;;
78887;SDS011;68276;49.326;8.690;2023-07-30T16:50:28;4.60;;;1.05;;
78887;SDS011;68276;49.326;8.690;2023-07-30T16:55:18;4.93;;;1.07;;
78887;SDS011;68276;49.326;8.690;2023-07-30T17:00:09;5.30;;;0.83;;
78887;SDS011;68276;49.326;8.690;2023-07-30T17:02:35;3.88;;;0.80;;
78887;SDS011;68276;49.326;8.690;2023-07-30T17:07:26;5.23;;;1.00;;
78887;SDS011;68276;49.326;8.690;2023-07-30T17:09:51;1.92;;;0.63;;
78887;SDS011;68276;49.326;8.690;2023-07-30T17:14:42;4.22;;;0.80;;
78887;SDS011;68276;49.326;8.690;2023-07-30T17:17:08;5.00;;;1.05;;
78887;SDS011;68276;49.326;8.690;2023-07-30T17:19:33;3.05;;;0.90;;
78887;SDS011;68276;49.326;8.690;2023-07-30T17:24:24;5.30;;;1.02;;
78887;SDS011;68276;49.326;8.690;2023-07-30T17:29:15;5.07;;;1.30;;
78887;SDS011;68276;49.326;8.690;2023-07-30T17:34:07;7.15;;;1.65;;
78887;SDS011;68276;49.326;8.690;2023-07-30T17:39:00;4.95;;;1.33;;
78887;SDS011;68276;49.326;8.690;2023-07-30T17:41:26;3.92;;;0.80;;
78887;SDS011;68276;49.326;8.690;2023-07-30T17:46:17;5.43;;;1.10;;
78887;SDS011;68276;49.326;8.690;2023-07-30T17:48:46;4.20;;;1.00;;
78887;SDS011;68276;49.326;8.690;2023-07-30T17:51:15;5.15;;;0.90;;
78887;SDS011;68276;49.326;8.690;2023-07-30T17:53:44;4.00;;;1.55;;
78887;SDS011;68276;49.326;8.690;2023-07-30T17:58:35;5.13;;;1.33;;
78887;SDS011;68276;49.326;8.690;2023-07-30T18:03:29;7.22;;;2.20;;
78887;SDS011;68276;49.326;8.690;2023-07-30T18:05:55;3.47;;;0.75;;
78887;SDS011;68276;49.326;8.690;2023-07-30T18:10:45;5.30;;;1.00;;
78887;SDS011;68276;49.326;8.690;2023-07-30T18:13:14;4.95;;;1.02;;
78887;SDS011;68276;49.326;8.690;2023-07-30T18:15:40;3.88;;;0.93;;
78887;SDS011;68276;49.326;8.690;2023-07-30T18:20:31;3.83;;;0.95;;
78887;SDS011;68276;49.326;8.690;2023-07-30T18:22:58;5.90;;;1.10;;
78887;SDS011;68276;49.326;8.690;2023-07-30T18:27:52;3.38;;;1.00;;